sensor_id;sensor_type;location;lat;lon;timestamp;P1;durP1;ratioP1;P2;durP2;ratioP2
944;SDS011;459;48.676;9.034;2023-08-06T00:01:54;2.63;;;2.43;;
944;SDS011;459;48.676;9.034;2023-08-06T00:04:20;3.70;;;2.50;;
944;SDS011;459;48.676;9.034;2023-08-06T00:06:45;2.53;;;2.33;;
944;SDS011;459;48.676;9.034;2023-08-06T00:09:10;2.50;;;2.40;;
944;SDS011;459;48.676;9.034;2023-08-06T00:11:35;3.47;;;3.17;;
944;SDS011;459;48.676;9.034;2023-08-06T00:14:00;2.53;;;2.33;;
944;SDS011;459;48.676;9.034;2023-08-06T00:16:26;3.10;;;2.40;;
944;SDS011;459;48.676;9.034;2023-08-06T00:18:51;3.27;;;2.97;;
944;SDS011;459;48.676;9.034;2023-08-06T00:21:16;2.60;;;2.40;;
944;SDS011;459;48.676;9.034;2023-08-06T00:23:41;3.80;;;3.37;;
944;SDS011;459;48.676;9.034;2023-08-06T00:26:06;2.97;;;2.67;;
944;SDS011;459;48.676;9.034;2023-08-06T00:28:32;3.37;;;3.07;;
944;SDS011;459;48.676;9.034;2023-08-06T00:30:57;3.23;;;3.00;;
944;SDS011;459;48.676;9.034;2023-08-06T00:33:22;3.80;;;3.47;;
944;SDS011;459;48.676;9.034;2023-08-06T00:35:48;3.40;;;3.10;;
944;SDS011;459;48.676;9.034;2023-08-06T00:38:13;3.40;;;2.87;;
944;SDS011;459;48.676;9.034;2023-08-06T00:40:38;2.83;;;2.63;;
944;SDS011;459;48.676;9.034;2023-08-06T00:43:03;2.60;;;1.97;;
944;SDS011;459;48.676;9.034;2023-08-06T00:45:28;3.20;;;2.77;;
944;SDS011;459;48.676;9.034;2023-08-06T00:47:54;2.83;;;2.57;;
944;SDS011;459;48.676;9.034;2023-08-06T00:50:20;3.50;;;3.07;;
944;SDS011;459;48.676;9.034;2023-08-06T00:52:47;6.30;;;3.00;;
944;SDS011;459;48.676;9.034;2023-08-06T00:55:12;4.90;;;3.33;;
944;SDS011;459;48.676;9.034;2023-08-06T00:57:37;3.33;;;3.13;;
944;SDS011;459;48.676;9.034;2023-08-06T01:00:03;3.60;;;2.83;;
944;SDS011;459;48.676;9.034;2023-08-06T01:02:29;3.30;;;3.00;;
944;SDS011;459;48.676;9.034;2023-08-06T01:04:54;4.20;;;3.40;;
944;SDS011;459;48.676;9.034;2023-08-06T01:09:57;3.27;;;2.97;;
944;SDS011;459;48.676;9.034;2023-08-06T01:15:08;3.27;;;3.00;;
944;SDS011;459;48.676;9.034;2023-08-06T01:17:36;3.90;;;3.50;;
944;SDS011;459;48.676;9.034;2023-08-06T01:20:01;4.37;;;3.63;;
944;SDS011;459;48.676;9.034;2023-08-06T01:22:26;8.30;;;6.67;;
944;SDS011;459;48.676;9.034;2023-08-06T01:24:51;5.13;;;4.63;;
944;SDS011;459;48.676;9.034;2023-08-06T01:27:20;4.13;;;3.83;;
944;SDS011;459;48.676;9.034;2023-08-06T01:29:49;4.67;;;3.37;;
944;SDS011;459;48.676;9.034;2023-08-06T01:32:19;3.37;;;3.07;;
944;SDS011;459;48.676;9.034;2023-08-06T01:34:45;3.83;;;3.37;;
944;SDS011;459;48.676;9.034;2023-08-06T01:37:12;2.87;;;2.57;;
944;SDS011;459;48.676;9.034;2023-08-06T01:39:37;3.93;;;3.47;;
944;SDS011;459;48.676;9.034;2023-08-06T01:42:04;3.57;;;3.27;;
944;SDS011;459;48.676;9.034;2023-08-06T01:44:30;3.10;;;2.90;;
944;SDS011;459;48.676;9.034;2023-08-06T01:46:55;3.90;;;3.53;;
944;SDS011;459;48.676;9.034;2023-08-06T01:49:20;3.43;;;3.13;;
944;SDS011;459;48.676;9.034;2023-08-06T01:51:45;4.10;;;3.10;;
944;SDS011;459;48.676;9.034;2023-08-06T01:54:11;3.67;;;3.37;;
944;SDS011;459;48.676;9.034;2023-08-06T01:56:36;3.73;;;3.43;;
944;SDS011;459;48.676;9.034;2023-08-06T01:59:01;3.73;;;3.20;;
944;SDS011;459;48.676;9.034;2023-08-06T02:01:26;2.70;;;2.50;;
944;SDS011;459;48.676;9.034;2023-08-06T02:03:51;3.80;;;3.40;;
944;SDS011;459;48.676;9.034;2023-08-06T02:06:16;2.73;;;2.53;;
944;SDS011;459;48.676;9.034;2023-08-06T02:08:41;2.93;;;2.53;;
944;SDS011;459;48.676;9.034;2023-08-06T02:11:07;2.63;;;2.43;;
944;SDS011;459;48.676;9.034;2023-08-06T02:13:32;3.33;;;3.03;;
944;SDS011;459;48.676;9.034;2023-08-06T02:15:57;3.03;;;2.70;;
944;SDS011;459;48.676;9.034;2023-08-06T02:18:22;3.33;;;2.80;;
944;SDS011;459;48.676;9.034;2023-08-06T02:20:57;2.77;;;2.57;;
944;SDS011;459;48.676;9.034;2023-08-06T02:23:26;3.30;;;2.93;;
944;SDS011;459;48.676;9.034;2023-08-06T02:25:58;2.93;;;2.63;;
944;SDS011;459;48.676;9.034;2023-08-06T02:28:23;2.50;;;2.30;;
944;SDS011;459;48.676;9.034;2023-08-06T02:30:51;2.43;;;2.23;;
944;SDS011;459;48.676;9.034;2023-08-06T02:33:16;3.07;;;2.80;;
944;SDS011;459;48.676;9.034;2023-08-06T02:35:41;2.17;;;1.97;;
944;SDS011;459;48.676;9.034;2023-08-06T02:38:07;3.27;;;2.50;;
944;SDS011;459;48.676;9.034;2023-08-06T02:40:32;2.57;;;2.37;;
944;SDS011;459;48.676;9.034;2023-08-06T02:42:57;6.63;;;2.60;;
944;SDS011;459;48.676;9.034;2023-08-06T02:45:22;3.50;;;2.40;;
944;SDS011;459;48.676;9.034;2023-08-06T02:47:47;3.70;;;2.40;;
944;SDS011;459;48.676;9.034;2023-08-06T02:50:12;2.50;;;2.30;;
944;SDS011;459;48.676;9.034;2023-08-06T02:52:38;2.60;;;2.40;;
944;SDS011;459;48.676;9.034;2023-08-06T02:55:05;2.87;;;2.60;;
944;SDS011;459;48.676;9.034;2023-08-06T02:57:30;3.57;;;2.40;;
944;SDS011;459;48.676;9.034;2023-08-06T02:59:55;3.20;;;2.20;;
944;SDS011;459;48.676;9.034;2023-08-06T03:02:20;3.37;;;2.03;;
944;SDS011;459;48.676;9.034;2023-08-06T03:04:45;2.80;;;2.60;;
944;SDS011;459;48.676;9.034;2023-08-06T03:07:11;2.37;;;2.13;;
944;SDS011;459;48.676;9.034;2023-08-06T03:09:36;4.07;;;2.77;;
944;SDS011;459;48.676;9.034;2023-08-06T03:12:01;3.53;;;2.63;;
944;SDS011;459;48.676;9.034;2023-08-06T03:14:27;3.63;;;2.83;;
944;SDS011;459;48.676;9.034;2023-08-06T03:16:52;3.93;;;2.10;;
944;SDS011;459;48.676;9.034;2023-08-06T03:19:17;2.77;;;2.57;;
944;SDS011;459;48.676;9.034;2023-08-06T03:21:42;2.97;;;1.90;;
944;SDS011;459;48.676;9.034;2023-08-06T03:24:07;2.03;;;1.80;;
944;SDS011;459;48.676;9.034;2023-08-06T03:26:32;2.70;;;2.00;;
944;SDS011;459;48.676;9.034;2023-08-06T03:28:58;3.70;;;2.40;;
944;SDS011;459;48.676;9.034;2023-08-06T03:31:23;4.13;;;2.80;;
944;SDS011;459;48.676;9.034;2023-08-06T03:33:48;4.57;;;2.60;;
944;SDS011;459;48.676;9.034;2023-08-06T03:36:13;2.53;;;2.30;;
944;SDS011;459;48.676;9.034;2023-08-06T03:38:39;2.30;;;1.87;;
944;SDS011;459;48.676;9.034;2023-08-06T03:41:04;2.40;;;2.20;;
944;SDS011;459;48.676;9.034;2023-08-06T03:43:29;3.80;;;2.83;;
944;SDS011;459;48.676;9.034;2023-08-06T03:45:54;3.13;;;2.27;;
944;SDS011;459;48.676;9.034;2023-08-06T03:48:20;4.63;;;2.20;;
944;SDS011;459;48.676;9.034;2023-08-06T03:50:45;3.00;;;1.90;;
944;SDS011;459;48.676;9.034;2023-08-06T03:53:10;2.80;;;2.30;;
944;SDS011;459;48.676;9.034;2023-08-06T03:55:36;4.67;;;2.33;;
944;SDS011;459;48.676;9.034;2023-08-06T03:58:01;3.13;;;2.10;;
944;SDS011;459;48.676;9.034;2023-08-06T04:00:26;2.53;;;2.30;;
944;SDS011;459;48.676;9.034;2023-08-06T04:02:51;3.17;;;1.80;;
944;SDS011;459;48.676;9.034;2023-08-06T04:05:16;7.63;;;3.20;;
944;SDS011;459;48.676;9.034;2023-08-06T04:07:42;5.23;;;2.00;;
944;SDS011;459;48.676;9.034;2023-08-06T04:10:07;3.43;;;2.00;;
944;SDS011;459;48.676;9.034;2023-08-06T04:12:33;5.27;;;2.50;;
944;SDS011;459;48.676;9.034;2023-08-06T04:15:01;2.73;;;1.87;;
944;SDS011;459;48.676;9.034;2023-08-06T04:17:26;2.33;;;1.70;;
944;SDS011;459;48.676;9.034;2023-08-06T04:19:52;5.10;;;2.50;;
944;SDS011;459;48.676;9.034;2023-08-06T04:22:18;3.70;;;2.00;;
944;SDS011;459;48.676;9.034;2023-08-06T04:24:43;3.10;;;1.80;;
944;SDS011;459;48.676;9.034;2023-08-06T04:27:09;5.27;;;1.90;;
944;SDS011;459;48.676;9.034;2023-08-06T04:29:34;4.07;;;1.97;;
944;SDS011;459;48.676;9.034;2023-08-06T04:31:59;2.80;;;2.00;;
944;SDS011;459;48.676;9.034;2023-08-06T04:34:24;2.53;;;2.33;;
944;SDS011;459;48.676;9.034;2023-08-06T04:36:49;2.70;;;2.23;;
944;SDS011;459;48.676;9.034;2023-08-06T04:39:15;3.70;;;1.43;;
944;SDS011;459;48.676;9.034;2023-08-06T04:41:40;2.70;;;2.17;;
944;SDS011;459;48.676;9.034;2023-08-06T04:44:05;1.83;;;1.43;;
944;SDS011;459;48.676;9.034;2023-08-06T04:46:30;3.47;;;1.70;;
944;SDS011;459;48.676;9.034;2023-08-06T04:48:55;2.87;;;1.20;;
944;SDS011;459;48.676;9.034;2023-08-06T04:51:20;3.13;;;1.30;;
944;SDS011;459;48.676;9.034;2023-08-06T04:53:46;2.50;;;1.00;;
944;SDS011;459;48.676;9.034;2023-08-06T04:56:11;1.77;;;1.57;;
944;SDS011;459;48.676;9.034;2023-08-06T04:58:36;4.30;;;1.60;;
944;SDS011;459;48.676;9.034;2023-08-06T05:01:01;2.60;;;1.60;;
944;SDS011;459;48.676;9.034;2023-08-06T05:03:26;2.13;;;1.00;;
944;SDS011;459;48.676;9.034;2023-08-06T05:05:52;2.00;;;1.30;;
944;SDS011;459;48.676;9.034;2023-08-06T05:08:17;1.93;;;0.97;;
944;SDS011;459;48.676;9.034;2023-08-06T05:10:43;1.30;;;0.90;;
944;SDS011;459;48.676;9.034;2023-08-06T05:13:08;2.70;;;1.30;;
944;SDS011;459;48.676;9.034;2023-08-06T05:15:33;1.73;;;0.90;;
944;SDS011;459;48.676;9.034;2023-08-06T05:17:58;1.40;;;0.70;;
944;SDS011;459;48.676;9.034;2023-08-06T05:20:24;3.13;;;1.27;;
944;SDS011;459;48.676;9.034;2023-08-06T05:22:49;2.43;;;1.10;;
944;SDS011;459;48.676;9.034;2023-08-06T05:25:14;3.90;;;0.80;;
944;SDS011;459;48.676;9.034;2023-08-06T05:27:39;2.77;;;0.60;;
944;SDS011;459;48.676;9.034;2023-08-06T05:30:05;2.90;;;1.03;;
944;SDS011;459;48.676;9.034;2023-08-06T05:32:30;1.27;;;1.17;;
944;SDS011;459;48.676;9.034;2023-08-06T05:34:55;2.73;;;0.90;;
944;SDS011;459;48.676;9.034;2023-08-06T05:37:20;3.13;;;0.93;;
944;SDS011;459;48.676;9.034;2023-08-06T05:39:46;0.60;;;0.60;;
944;SDS011;459;48.676;9.034;2023-08-06T05:42:11;1.20;;;1.00;;
944;SDS011;459;48.676;9.034;2023-08-06T05:44:36;1.27;;;0.90;;
944;SDS011;459;48.676;9.034;2023-08-06T05:47:01;2.10;;;1.40;;
944;SDS011;459;48.676;9.034;2023-08-06T05:49:26;1.03;;;0.80;;
944;SDS011;459;48.676;9.034;2023-08-06T05:51:52;2.20;;;1.00;;
944;SDS011;459;48.676;9.034;2023-08-06T05:54:20;1.27;;;0.93;;
944;SDS011;459;48.676;9.034;2023-08-06T05:56:45;1.57;;;1.30;;
944;SDS011;459;48.676;9.034;2023-08-06T05:59:10;2.40;;;1.20;;
944;SDS011;459;48.676;9.034;2023-08-06T06:01:35;1.30;;;0.80;;
944;SDS011;459;48.676;9.034;2023-08-06T06:04:01;1.37;;;0.90;;
944;SDS011;459;48.676;9.034;2023-08-06T06:06:26;2.33;;;1.00;;
944;SDS011;459;48.676;9.034;2023-08-06T06:08:51;1.47;;;0.90;;
944;SDS011;459;48.676;9.034;2023-08-06T06:11:17;2.60;;;1.00;;
944;SDS011;459;48.676;9.034;2023-08-06T06:13:44;2.63;;;1.10;;
944;SDS011;459;48.676;9.034;2023-08-06T06:16:09;0.90;;;0.80;;
944;SDS011;459;48.676;9.034;2023-08-06T06:18:34;1.17;;;0.80;;
944;SDS011;459;48.676;9.034;2023-08-06T06:21:00;2.70;;;1.10;;
944;SDS011;459;48.676;9.034;2023-08-06T06:23:25;1.50;;;1.30;;
944;SDS011;459;48.676;9.034;2023-08-06T06:25:50;1.23;;;1.07;;
944;SDS011;459;48.676;9.034;2023-08-06T06:28:16;0.97;;;0.80;;
944;SDS011;459;48.676;9.034;2023-08-06T06:30:42;2.50;;;1.07;;
944;SDS011;459;48.676;9.034;2023-08-06T06:33:07;2.23;;;0.80;;
944;SDS011;459;48.676;9.034;2023-08-06T06:35:32;0.63;;;0.60;;
944;SDS011;459;48.676;9.034;2023-08-06T06:37:57;1.60;;;1.13;;
944;SDS011;459;48.676;9.034;2023-08-06T06:40:22;0.80;;;0.80;;
944;SDS011;459;48.676;9.034;2023-08-06T06:42:48;3.50;;;1.20;;
944;SDS011;459;48.676;9.034;2023-08-06T06:45:13;5.23;;;1.30;;
944;SDS011;459;48.676;9.034;2023-08-06T06:47:38;2.97;;;1.00;;
944;SDS011;459;48.676;9.034;2023-08-06T06:50:03;1.30;;;1.00;;
944;SDS011;459;48.676;9.034;2023-08-06T06:52:29;1.90;;;1.57;;
944;SDS011;459;48.676;9.034;2023-08-06T06:54:54;1.27;;;1.03;;
944;SDS011;459;48.676;9.034;2023-08-06T06:57:20;1.00;;;0.97;;
944;SDS011;459;48.676;9.034;2023-08-06T06:59:45;1.53;;;0.90;;
944;SDS011;459;48.676;9.034;2023-08-06T07:02:10;1.67;;;1.03;;
944;SDS011;459;48.676;9.034;2023-08-06T07:04:35;1.00;;;0.80;;
944;SDS011;459;48.676;9.034;2023-08-06T07:07:00;2.53;;;0.97;;
944;SDS011;459;48.676;9.034;2023-08-06T07:09:26;3.13;;;2.27;;
944;SDS011;459;48.676;9.034;2023-08-06T07:11:51;1.03;;;0.90;;
944;SDS011;459;48.676;9.034;2023-08-06T07:14:17;2.07;;;1.03;;
944;SDS011;459;48.676;9.034;2023-08-06T07:16:42;0.83;;;0.70;;
944;SDS011;459;48.676;9.034;2023-08-06T07:19:07;0.60;;;0.60;;
944;SDS011;459;48.676;9.034;2023-08-06T07:21:32;1.30;;;0.70;;
944;SDS011;459;48.676;9.034;2023-08-06T07:23:57;0.90;;;0.50;;
944;SDS011;459;48.676;9.034;2023-08-06T07:26:24;1.43;;;0.73;;
944;SDS011;459;48.676;9.034;2023-08-06T07:28:49;0.53;;;0.43;;
944;SDS011;459;48.676;9.034;2023-08-06T07:31:14;1.17;;;0.40;;
944;SDS011;459;48.676;9.034;2023-08-06T07:33:40;0.50;;;0.40;;
944;SDS011;459;48.676;9.034;2023-08-06T07:36:08;1.47;;;0.67;;
944;SDS011;459;48.676;9.034;2023-08-06T07:38:34;0.60;;;0.40;;
944;SDS011;459;48.676;9.034;2023-08-06T07:41:01;0.40;;;0.40;;
944;SDS011;459;48.676;9.034;2023-08-06T07:43:26;0.93;;;0.43;;
944;SDS011;459;48.676;9.034;2023-08-06T07:45:51;0.53;;;0.30;;
944;SDS011;459;48.676;9.034;2023-08-06T07:48:16;0.43;;;0.43;;
944;SDS011;459;48.676;9.034;2023-08-06T07:50:41;0.40;;;0.30;;
944;SDS011;459;48.676;9.034;2023-08-06T07:53:07;0.40;;;0.30;;
944;SDS011;459;48.676;9.034;2023-08-06T07:55:33;0.40;;;0.40;;
944;SDS011;459;48.676;9.034;2023-08-06T07:57:58;0.50;;;0.40;;
944;SDS011;459;48.676;9.034;2023-08-06T08:00:23;0.37;;;0.33;;
944;SDS011;459;48.676;9.034;2023-08-06T08:02:48;0.30;;;0.30;;
944;SDS011;459;48.676;9.034;2023-08-06T08:05:14;0.30;;;0.30;;
944;SDS011;459;48.676;9.034;2023-08-06T08:07:39;0.40;;;0.30;;
944;SDS011;459;48.676;9.034;2023-08-06T08:10:04;1.23;;;0.30;;
944;SDS011;459;48.676;9.034;2023-08-06T08:12:30;0.50;;;0.30;;
944;SDS011;459;48.676;9.034;2023-08-06T08:14:55;0.50;;;0.40;;
944;SDS011;459;48.676;9.034;2023-08-06T08:17:20;0.40;;;0.30;;
944;SDS011;459;48.676;9.034;2023-08-06T08:19:45;0.40;;;0.30;;
944;SDS011;459;48.676;9.034;2023-08-06T08:22:11;0.60;;;0.40;;
944;SDS011;459;48.676;9.034;2023-08-06T08:24:36;0.47;;;0.47;;
944;SDS011;459;48.676;9.034;2023-08-06T08:27:01;0.40;;;0.30;;
944;SDS011;459;48.676;9.034;2023-08-06T08:29:26;0.53;;;0.30;;
944;SDS011;459;48.676;9.034;2023-08-06T08:31:51;0.40;;;0.30;;
944;SDS011;459;48.676;9.034;2023-08-06T08:34:17;0.50;;;0.40;;
944;SDS011;459;48.676;9.034;2023-08-06T08:36:42;1.20;;;0.30;;
944;SDS011;459;48.676;9.034;2023-08-06T08:39:08;0.40;;;0.30;;
944;SDS011;459;48.676;9.034;2023-08-06T08:41:33;0.37;;;0.30;;
944;SDS011;459;48.676;9.034;2023-08-06T08:44:00;1.27;;;0.40;;
944;SDS011;459;48.676;9.034;2023-08-06T08:46:34;0.63;;;0.60;;
944;SDS011;459;48.676;9.034;2023-08-06T08:49:01;0.40;;;0.37;;
944;SDS011;459;48.676;9.034;2023-08-06T08:51:27;0.40;;;0.30;;
944;SDS011;459;48.676;9.034;2023-08-06T08:53:52;0.40;;;0.30;;
944;SDS011;459;48.676;9.034;2023-08-06T08:56:18;0.50;;;0.30;;
944;SDS011;459;48.676;9.034;2023-08-06T08:58:44;0.47;;;0.33;;
944;SDS011;459;48.676;9.034;2023-08-06T09:01:09;0.33;;;0.30;;
944;SDS011;459;48.676;9.034;2023-08-06T09:03:35;0.50;;;0.40;;
944;SDS011;459;48.676;9.034;2023-08-06T09:06:01;0.67;;;0.33;;
944;SDS011;459;48.676;9.034;2023-08-06T09:08:27;0.30;;;0.30;;
944;SDS011;459;48.676;9.034;2023-08-06T09:10:55;0.40;;;0.30;;
944;SDS011;459;48.676;9.034;2023-08-06T09:13:21;0.43;;;0.30;;
944;SDS011;459;48.676;9.034;2023-08-06T09:15:48;0.40;;;0.30;;
944;SDS011;459;48.676;9.034;2023-08-06T09:18:14;0.30;;;0.30;;
944;SDS011;459;48.676;9.034;2023-08-06T09:20:40;0.30;;;0.30;;
944;SDS011;459;48.676;9.034;2023-08-06T09:23:08;0.40;;;0.30;;
944;SDS011;459;48.676;9.034;2023-08-06T09:25:36;0.50;;;0.33;;
944;SDS011;459;48.676;9.034;2023-08-06T09:28:02;0.60;;;0.33;;
944;SDS011;459;48.676;9.034;2023-08-06T09:30:28;0.40;;;0.40;;
944;SDS011;459;48.676;9.034;2023-08-06T09:32:55;0.40;;;0.40;;
944;SDS011;459;48.676;9.034;2023-08-06T09:35:20;0.40;;;0.40;;
944;SDS011;459;48.676;9.034;2023-08-06T09:37:46;0.40;;;0.30;;
944;SDS011;459;48.676;9.034;2023-08-06T09:40:27;0.40;;;0.30;;
944;SDS011;459;48.676;9.034;2023-08-06T09:42:52;0.40;;;0.30;;
944;SDS011;459;48.676;9.034;2023-08-06T09:45:18;0.37;;;0.30;;
944;SDS011;459;48.676;9.034;2023-08-06T09:47:43;0.30;;;0.20;;
944;SDS011;459;48.676;9.034;2023-08-06T09:50:15;0.30;;;0.30;;
944;SDS011;459;48.676;9.034;2023-08-06T09:52:41;0.50;;;0.40;;
944;SDS011;459;48.676;9.034;2023-08-06T09:55:07;0.40;;;0.30;;
944;SDS011;459;48.676;9.034;2023-08-06T09:57:32;1.27;;;0.57;;
944;SDS011;459;48.676;9.034;2023-08-06T09:59:57;0.30;;;0.30;;
944;SDS011;459;48.676;9.034;2023-08-06T10:02:22;0.60;;;0.30;;
944;SDS011;459;48.676;9.034;2023-08-06T10:04:49;0.60;;;0.37;;
944;SDS011;459;48.676;9.034;2023-08-06T10:07:15;0.30;;;0.20;;
944;SDS011;459;48.676;9.034;2023-08-06T10:09:41;1.23;;;0.37;;
944;SDS011;459;48.676;9.034;2023-08-06T10:12:06;0.50;;;0.40;;
944;SDS011;459;48.676;9.034;2023-08-06T10:14:32;0.40;;;0.30;;
944;SDS011;459;48.676;9.034;2023-08-06T10:16:58;1.73;;;0.40;;
944;SDS011;459;48.676;9.034;2023-08-06T10:19:24;0.40;;;0.30;;
944;SDS011;459;48.676;9.034;2023-08-06T10:24:49;0.70;;;0.37;;
944;SDS011;459;48.676;9.034;2023-08-06T10:29:47;0.37;;;0.30;;
944;SDS011;459;48.676;9.034;2023-08-06T10:32:12;1.00;;;0.60;;
944;SDS011;459;48.676;9.034;2023-08-06T10:34:52;0.50;;;0.40;;
944;SDS011;459;48.676;9.034;2023-08-06T10:37:18;0.30;;;0.30;;
944;SDS011;459;48.676;9.034;2023-08-06T10:39:48;0.90;;;0.30;;
944;SDS011;459;48.676;9.034;2023-08-06T10:42:22;0.93;;;0.37;;
944;SDS011;459;48.676;9.034;2023-08-06T10:47:38;0.53;;;0.37;;
944;SDS011;459;48.676;9.034;2023-08-06T10:50:04;1.57;;;0.50;;
944;SDS011;459;48.676;9.034;2023-08-06T10:52:30;0.40;;;0.40;;
944;SDS011;459;48.676;9.034;2023-08-06T10:54:55;0.30;;;0.30;;
944;SDS011;459;48.676;9.034;2023-08-06T10:57:20;0.40;;;0.40;;
944;SDS011;459;48.676;9.034;2023-08-06T10:59:45;0.40;;;0.40;;
944;SDS011;459;48.676;9.034;2023-08-06T11:02:10;0.50;;;0.40;;
944;SDS011;459;48.676;9.034;2023-08-06T11:04:35;0.53;;;0.40;;
944;SDS011;459;48.676;9.034;2023-08-06T11:07:01;0.30;;;0.30;;
944;SDS011;459;48.676;9.034;2023-08-06T11:09:26;0.40;;;0.30;;
944;SDS011;459;48.676;9.034;2023-08-06T11:11:51;0.40;;;0.30;;
944;SDS011;459;48.676;9.034;2023-08-06T11:14:16;0.70;;;0.40;;
944;SDS011;459;48.676;9.034;2023-08-06T11:16:42;1.07;;;0.43;;
944;SDS011;459;48.676;9.034;2023-08-06T11:19:07;0.43;;;0.40;;
944;SDS011;459;48.676;9.034;2023-08-06T11:21:33;0.70;;;0.53;;
944;SDS011;459;48.676;9.034;2023-08-06T11:23:58;3.63;;;1.47;;
944;SDS011;459;48.676;9.034;2023-08-06T11:26:23;0.70;;;0.43;;
944;SDS011;459;48.676;9.034;2023-08-06T11:28:49;1.07;;;0.70;;
944;SDS011;459;48.676;9.034;2023-08-06T11:31:20;0.77;;;0.73;;
944;SDS011;459;48.676;9.034;2023-08-06T11:33:46;0.67;;;0.60;;
944;SDS011;459;48.676;9.034;2023-08-06T11:36:11;1.00;;;0.80;;
944;SDS011;459;48.676;9.034;2023-08-06T11:38:36;1.53;;;0.60;;
944;SDS011;459;48.676;9.034;2023-08-06T11:41:01;1.67;;;0.60;;
944;SDS011;459;48.676;9.034;2023-08-06T11:43:29;1.10;;;0.60;;
944;SDS011;459;48.676;9.034;2023-08-06T11:45:55;3.03;;;0.80;;
944;SDS011;459;48.676;9.034;2023-08-06T11:48:21;0.87;;;0.60;;
944;SDS011;459;48.676;9.034;2023-08-06T11:50:46;0.60;;;0.50;;
944;SDS011;459;48.676;9.034;2023-08-06T11:53:12;1.00;;;0.70;;
944;SDS011;459;48.676;9.034;2023-08-06T11:55:37;1.10;;;0.53;;
944;SDS011;459;48.676;9.034;2023-08-06T11:58:03;1.83;;;1.10;;
944;SDS011;459;48.676;9.034;2023-08-06T12:00:29;0.93;;;0.73;;
944;SDS011;459;48.676;9.034;2023-08-06T12:02:54;1.13;;;0.60;;
944;SDS011;459;48.676;9.034;2023-08-06T12:05:20;0.97;;;0.60;;
944;SDS011;459;48.676;9.034;2023-08-06T12:08:04;0.63;;;0.60;;
944;SDS011;459;48.676;9.034;2023-08-06T12:10:30;0.70;;;0.50;;
944;SDS011;459;48.676;9.034;2023-08-06T12:12:55;0.70;;;0.50;;
944;SDS011;459;48.676;9.034;2023-08-06T12:15:21;0.80;;;0.70;;
944;SDS011;459;48.676;9.034;2023-08-06T12:17:46;0.70;;;0.50;;
944;SDS011;459;48.676;9.034;2023-08-06T12:20:12;1.00;;;0.70;;
944;SDS011;459;48.676;9.034;2023-08-06T12:22:37;1.20;;;0.60;;
944;SDS011;459;48.676;9.034;2023-08-06T12:25:05;1.03;;;0.70;;
944;SDS011;459;48.676;9.034;2023-08-06T12:27:43;0.97;;;0.87;;
944;SDS011;459;48.676;9.034;2023-08-06T12:30:08;1.00;;;0.87;;
944;SDS011;459;48.676;9.034;2023-08-06T12:32:34;0.87;;;0.80;;
944;SDS011;459;48.676;9.034;2023-08-06T12:34:59;2.50;;;0.73;;
944;SDS011;459;48.676;9.034;2023-08-06T12:37:25;2.57;;;1.10;;
944;SDS011;459;48.676;9.034;2023-08-06T12:39:51;1.33;;;0.70;;
944;SDS011;459;48.676;9.034;2023-08-06T12:42:16;0.80;;;0.80;;
944;SDS011;459;48.676;9.034;2023-08-06T12:44:41;2.03;;;1.13;;
944;SDS011;459;48.676;9.034;2023-08-06T12:47:07;1.00;;;0.90;;
944;SDS011;459;48.676;9.034;2023-08-06T12:49:32;0.67;;;0.67;;
944;SDS011;459;48.676;9.034;2023-08-06T12:51:58;0.93;;;0.80;;
944;SDS011;459;48.676;9.034;2023-08-06T12:54:24;0.73;;;0.60;;
944;SDS011;459;48.676;9.034;2023-08-06T12:56:50;1.40;;;0.90;;
944;SDS011;459;48.676;9.034;2023-08-06T12:59:15;1.73;;;0.83;;
944;SDS011;459;48.676;9.034;2023-08-06T13:01:41;1.33;;;0.80;;
944;SDS011;459;48.676;9.034;2023-08-06T13:04:07;2.50;;;1.17;;
944;SDS011;459;48.676;9.034;2023-08-06T13:06:32;1.73;;;0.70;;
944;SDS011;459;48.676;9.034;2023-08-06T13:09:02;1.33;;;1.10;;
944;SDS011;459;48.676;9.034;2023-08-06T13:11:28;1.10;;;1.00;;
944;SDS011;459;48.676;9.034;2023-08-06T13:13:53;1.07;;;0.67;;
944;SDS011;459;48.676;9.034;2023-08-06T13:16:18;2.27;;;0.70;;
944;SDS011;459;48.676;9.034;2023-08-06T13:18:43;3.33;;;1.13;;
944;SDS011;459;48.676;9.034;2023-08-06T13:21:08;1.67;;;1.00;;
944;SDS011;459;48.676;9.034;2023-08-06T13:23:34;1.53;;;0.90;;
944;SDS011;459;48.676;9.034;2023-08-06T13:25:59;1.00;;;0.70;;
944;SDS011;459;48.676;9.034;2023-08-06T13:28:24;1.03;;;0.93;;
944;SDS011;459;48.676;9.034;2023-08-06T13:30:49;1.33;;;1.00;;
944;SDS011;459;48.676;9.034;2023-08-06T13:33:15;0.83;;;0.70;;
944;SDS011;459;48.676;9.034;2023-08-06T13:35:40;0.80;;;0.67;;
944;SDS011;459;48.676;9.034;2023-08-06T13:38:06;1.60;;;1.13;;
944;SDS011;459;48.676;9.034;2023-08-06T13:40:32;0.73;;;0.60;;
944;SDS011;459;48.676;9.034;2023-08-06T13:42:57;0.77;;;0.53;;
944;SDS011;459;48.676;9.034;2023-08-06T13:45:23;0.93;;;0.80;;
944;SDS011;459;48.676;9.034;2023-08-06T13:47:48;0.80;;;0.80;;
944;SDS011;459;48.676;9.034;2023-08-06T13:50:13;1.50;;;0.97;;
944;SDS011;459;48.676;9.034;2023-08-06T13:52:38;1.50;;;0.90;;
944;SDS011;459;48.676;9.034;2023-08-06T13:55:04;0.80;;;0.77;;
944;SDS011;459;48.676;9.034;2023-08-06T13:57:29;1.63;;;1.10;;
944;SDS011;459;48.676;9.034;2023-08-06T13:59:54;0.70;;;0.70;;
944;SDS011;459;48.676;9.034;2023-08-06T14:02:19;0.97;;;0.80;;
944;SDS011;459;48.676;9.034;2023-08-06T14:04:45;0.97;;;0.80;;
944;SDS011;459;48.676;9.034;2023-08-06T14:07:10;2.80;;;1.07;;
944;SDS011;459;48.676;9.034;2023-08-06T14:09:35;1.10;;;0.90;;
944;SDS011;459;48.676;9.034;2023-08-06T14:12:00;1.00;;;0.90;;
944;SDS011;459;48.676;9.034;2023-08-06T14:14:25;1.60;;;0.77;;
944;SDS011;459;48.676;9.034;2023-08-06T14:16:52;1.37;;;1.10;;
944;SDS011;459;48.676;9.034;2023-08-06T14:19:17;1.70;;;1.03;;
944;SDS011;459;48.676;9.034;2023-08-06T14:21:43;1.10;;;0.97;;
944;SDS011;459;48.676;9.034;2023-08-06T14:24:08;1.40;;;1.30;;
944;SDS011;459;48.676;9.034;2023-08-06T14:26:33;1.40;;;1.30;;
944;SDS011;459;48.676;9.034;2023-08-06T14:28:59;1.00;;;0.90;;
944;SDS011;459;48.676;9.034;2023-08-06T14:31:24;1.00;;;0.90;;
944;SDS011;459;48.676;9.034;2023-08-06T14:33:49;0.80;;;0.70;;
944;SDS011;459;48.676;9.034;2023-08-06T14:36:14;1.00;;;0.83;;
944;SDS011;459;48.676;9.034;2023-08-06T14:38:40;1.63;;;0.80;;
944;SDS011;459;48.676;9.034;2023-08-06T14:41:05;1.00;;;0.83;;
944;SDS011;459;48.676;9.034;2023-08-06T14:43:31;2.27;;;0.93;;
944;SDS011;459;48.676;9.034;2023-08-06T14:45:56;1.57;;;1.13;;
944;SDS011;459;48.676;9.034;2023-08-06T14:48:21;1.03;;;0.80;;
944;SDS011;459;48.676;9.034;2023-08-06T14:50:46;1.10;;;0.97;;
944;SDS011;459;48.676;9.034;2023-08-06T14:53:11;0.93;;;0.63;;
944;SDS011;459;48.676;9.034;2023-08-06T14:55:38;1.27;;;1.17;;
944;SDS011;459;48.676;9.034;2023-08-06T14:58:03;0.90;;;0.80;;
944;SDS011;459;48.676;9.034;2023-08-06T15:00:28;1.33;;;0.70;;
944;SDS011;459;48.676;9.034;2023-08-06T15:02:54;1.00;;;0.70;;
944;SDS011;459;48.676;9.034;2023-08-06T15:05:19;1.23;;;0.80;;
944;SDS011;459;48.676;9.034;2023-08-06T15:07:44;0.70;;;0.70;;
944;SDS011;459;48.676;9.034;2023-08-06T15:10:09;1.27;;;0.80;;
944;SDS011;459;48.676;9.034;2023-08-06T15:12:34;1.43;;;0.90;;
944;SDS011;459;48.676;9.034;2023-08-06T15:15:00;0.80;;;0.80;;
944;SDS011;459;48.676;9.034;2023-08-06T15:17:26;1.90;;;0.90;;
944;SDS011;459;48.676;9.034;2023-08-06T15:19:52;2.10;;;1.10;;
944;SDS011;459;48.676;9.034;2023-08-06T15:22:17;1.67;;;0.80;;
944;SDS011;459;48.676;9.034;2023-08-06T15:24:42;1.00;;;0.80;;
944;SDS011;459;48.676;9.034;2023-08-06T15:27:08;1.80;;;0.80;;
944;SDS011;459;48.676;9.034;2023-08-06T15:29:34;1.00;;;0.80;;
944;SDS011;459;48.676;9.034;2023-08-06T15:31:59;3.13;;;1.20;;
944;SDS011;459;48.676;9.034;2023-08-06T15:34:24;2.00;;;0.87;;
944;SDS011;459;48.676;9.034;2023-08-06T15:36:49;1.53;;;0.70;;
944;SDS011;459;48.676;9.034;2023-08-06T15:39:14;1.00;;;0.80;;
944;SDS011;459;48.676;9.034;2023-08-06T15:41:40;3.27;;;0.80;;
944;SDS011;459;48.676;9.034;2023-08-06T15:44:05;1.17;;;1.00;;
944;SDS011;459;48.676;9.034;2023-08-06T15:46:30;0.80;;;0.70;;
944;SDS011;459;48.676;9.034;2023-08-06T15:48:55;3.50;;;1.07;;